Time;durP1;ratioP1;P1;durP2;ratioP2;P2;SDS_P1;SDS_P2;PMS_P1;PMS_P2;Temp;Humidity;BMP_temperature;BMP_pressure;BME280_temperature;BME280_humidity;BME280_pressure;Samples;Min_cycle;Max_cycle;Signal;HPM_P1;HPM_P2
2023/03/22 00:00:12;;;;;;;115.32;56.47;;;;;;;;;;5116117;28;20366;-77
2023/03/22 00:02:38;;;;;;;107.65;54.78;;;;;;;;;;5115532;28;20023;-77
2023/03/22 00:05:03;;;;;;;112.97;56.15;;;;;;;;;;5097974;28;20034;-77
2023/03/22 00:07:30;;;;;;;112.22;55.42;;;;;;;;;;5114882;28;20023;-77
2023/03/22 00:09:56;;;;;;;108.40;52.45;;;;;;;;;;5114316;28;20028;-78
2023/03/22 00:12:21;;;;;;;101.82;53.35;;;;;;;;;;5115596;28;20038;-77
2023/03/22 00:14:48;;;;;;;103.38;51.72;;;;;;;;;;5097605;28;20118;-74
2023/03/22 00:17:13;;;;;;;106.75;50.22;;;;;;;;;;5112443;28;20036;-74
2023/03/22 00:19:41;;;;;;;91.38;48.00;;;;;;;;;;5114945;28;20027;-77
2023/03/22 00:22:07;;;;;;;94.93;49.30;;;;;;;;;;5114623;28;20035;-76
2023/03/22 00:24:33;;;;;;;93.43;48.03;;;;;;;;;;5114427;28;20027;-78
2023/03/22 00:26:59;;;;;;;94.03;46.58;;;;;;;;;;5115511;28;20031;-76
2023/03/22 00:29:24;;;;;;;90.47;46.28;;;;;;;;;;5115959;28;20031;-77
2023/03/22 00:31:50;;;;;;;93.68;47.97;;;;;;;;;;5114363;28;20115;-77
2023/03/22 00:34:16;;;;;;;94.22;48.40;;;;;;;;;;5115544;28;20028;-76
2023/03/22 00:36:42;;;;;;;90.05;48.35;;;;;;;;;;5116020;28;20032;-77
2023/03/22 00:39:07;;;;;;;90.53;46.08;;;;;;;;;;5114334;28;20031;-77
2023/03/22 00:41:33;;;;;;;84.25;45.35;;;;;;;;;;5114314;28;20023;-77
2023/03/22 00:43:58;;;;;;;89.15;46.80;;;;;;;;;;5113970;28;20422;-77
2023/03/22 00:46:24;;;;;;;91.93;46.65;;;;;;;;;;5114111;28;20031;-77
2023/03/22 00:48:50;;;;;;;92.13;46.75;;;;;;;;;;5114112;28;20031;-78
2023/03/22 00:51:15;;;;;;;88.70;46.00;;;;;;;;;;5115338;28;20032;-77
2023/03/22 00:53:41;;;;;;;90.85;46.75;;;;;;;;;;5097421;28;20110;-78
2023/03/22 00:56:08;;;;;;;92.07;46.55;;;;;;;;;;5114043;28;20050;-77
2023/03/22 00:58:33;;;;;;;93.68;47.40;;;;;;;;;;5097119;28;20114;-77
2023/03/22 01:00:59;;;;;;;86.93;45.22;;;;;;;;;;5115345;28;20118;-78
2023/03/22 01:03:24;;;;;;;95.88;46.90;;;;;;;;;;5114416;28;20110;-77
2023/03/22 01:05:50;;;;;;;94.47;46.47;;;;;;;;;;5114961;28;20453;-75
2023/03/22 01:08:16;;;;;;;85.55;44.47;;;;;;;;;;5113800;28;20031;-74
2023/03/22 01:10:42;;;;;;;90.68;46.80;;;;;;;;;;5115158;28;20028;-75
2023/03/22 01:13:07;;;;;;;92.95;47.45;;;;;;;;;;5114012;28;20023;-75
2023/03/22 01:15:33;;;;;;;100.65;47.30;;;;;;;;;;5113742;28;20365;-74
2023/03/22 01:17:58;;;;;;;94.50;47.22;;;;;;;;;;5096795;28;20506;-76
2023/03/22 01:20:24;;;;;;;88.63;46.88;;;;;;;;;;5091913;28;20024;-75
2023/03/22 01:22:50;;;;;;;95.20;47.97;;;;;;;;;;5114189;28;20129;-76
2023/03/22 01:25:15;;;;;;;100.25;48.70;;;;;;;;;;5114623;28;20156;-76
2023/03/22 01:27:41;;;;;;;96.05;47.08;;;;;;;;;;5114388;28;20055;-76
2023/03/22 01:30:07;;;;;;;103.38;50.38;;;;;;;;;;5114615;28;20019;-77
2023/03/22 01:32:32;;;;;;;102.15;48.63;;;;;;;;;;5096464;28;20024;-76
2023/03/22 01:34:58;;;;;;;100.13;48.60;;;;;;;;;;5114434;28;20035;-76
2023/03/22 01:37:24;;;;;;;98.13;49.08;;;;;;;;;;5114688;27;20164;-76
2023/03/22 01:39:49;;;;;;;97.63;49.47;;;;;;;;;;5096324;28;20042;-75
2023/03/22 01:42:15;;;;;;;96.07;49.00;;;;;;;;;;5114583;28;20028;-76
2023/03/22 01:44:44;;;;;;;101.07;50.17;;;;;;;;;;5114682;28;20039;-77
2023/03/22 01:47:10;;;;;;;101.18;49.53;;;;;;;;;;5096357;28;20051;-76
2023/03/22 01:49:36;;;;;;;111.03;51.65;;;;;;;;;;5096418;28;20027;-77
2023/03/22 01:52:12;;;;;;;104.18;50.60;;;;;;;;;;5096374;28;20020;-77
2023/03/22 01:54:57;;;;;;;107.18;51.00;;;;;;;;;;5079716;28;20059;-76
2023/03/22 01:57:22;;;;;;;109.75;52.40;;;;;;;;;;5113212;28;20127;-77
2023/03/22 01:59:48;;;;;;;114.40;54.03;;;;;;;;;;5113168;28;20115;-76
2023/03/22 02:02:17;;;;;;;111.47;55.00;;;;;;;;;;5079946;28;20055;-77
2023/03/22 02:04:43;;;;;;;113.13;54.67;;;;;;;;;;5096974;28;20047;-77
2023/03/22 02:07:14;;;;;;;112.70;53.85;;;;;;;;;;5113193;28;20027;-77
2023/03/22 02:09:42;;;;;;;116.88;56.63;;;;;;;;;;5096897;28;20020;-77
2023/03/22 02:12:30;;;;;;;112.38;55.88;;;;;;;;;;5114379;28;20028;-76
2023/03/22 02:15:41;;;;;;;127.38;57.35;;;;;;;;;;5114716;28;20451;-77
2023/03/22 02:18:35;;;;;;;117.03;55.80;;;;;;;;;;5110226;28;20442;-76
2023/03/22 02:21:39;;;;;;;121.20;56.78;;;;;;;;;;5109308;28;20039;-78
2023/03/22 02:24:19;;;;;;;118.50;56.53;;;;;;;;;;5095551;28;20180;-77
2023/03/22 02:27:05;;;;;;;117.55;55.72;;;;;;;;;;5095560;28;20092;-77
2023/03/22 02:29:58;;;;;;;129.63;57.45;;;;;;;;;;5112791;28;20043;-77
2023/03/22 02:32:37;;;;;;;122.20;57.50;;;;;;;;;;5097892;28;20035;-77
2023/03/22 02:35:30;;;;;;;116.43;56.80;;;;;;;;;;5096881;28;20441;-77
2023/03/22 02:38:29;;;;;;;121.45;56.40;;;;;;;;;;5116581;28;20046;-78
2023/03/22 02:41:34;;;;;;;127.63;59.28;;;;;;;;;;5117482;28;20055;-75
2023/03/22 02:44:29;;;;;;;124.72;60.88;;;;;;;;;;5018354;28;20529;-75
2023/03/22 02:47:00;;;;;;;130.77;60.38;;;;;;;;;;5110468;28;20096;-77
2023/03/22 02:49:36;;;;;;;128.68;60.75;;;;;;;;;;5133790;27;20031;-76
2023/03/22 02:52:33;;;;;;;140.82;63.47;;;;;;;;;;5151380;27;20023;-77
2023/03/22 02:55:06;;;;;;;149.50;65.90;;;;;;;;;;5087790;28;20188;-77
2023/03/22 02:57:39;;;;;;;139.23;64.35;;;;;;;;;;5133508;27;20090;-76
2023/03/22 03:00:11;;;;;;;150.07;67.95;;;;;;;;;;5116475;28;20531;-77
2023/03/22 03:02:40;;;;;;;146.05;66.53;;;;;;;;;;5132578;27;20028;-77
2023/03/22 03:05:06;;;;;;;141.98;65.40;;;;;;;;;;5132813;27;20032;-77
2023/03/22 03:07:32;;;;;;;147.40;67.22;;;;;;;;;;5132565;27;20045;-77
2023/03/22 03:09:57;;;;;;;149.95;67.05;;;;;;;;;;5099275;28;20122;-76
2023/03/22 03:12:23;;;;;;;143.85;67.45;;;;;;;;;;5117346;28;20365;-76
2023/03/22 03:14:49;;;;;;;149.43;67.57;;;;;;;;;;5099267;28;20433;-76
2023/03/22 03:17:52;;;;;;;151.27;67.22;;;;;;;;;;5116193;28;20027;-76
2023/03/22 03:20:33;;;;;;;143.90;65.95;;;;;;;;;;5117034;28;20110;-76
2023/03/22 03:23:30;;;;;;;147.23;67.88;;;;;;;;;;5098733;28;20035;-76
2023/03/22 03:26:14;;;;;;;142.00;65.93;;;;;;;;;;5116704;28;20531;-77
2023/03/22 03:29:00;;;;;;;148.85;67.38;;;;;;;;;;5117004;27;20483;-76
2023/03/22 03:31:27;;;;;;;145.23;65.80;;;;;;;;;;5099536;28;20028;-76
2023/03/22 03:34:05;;;;;;;156.82;68.75;;;;;;;;;;5115986;28;20027;-76
2023/03/22 03:36:32;;;;;;;153.07;69.00;;;;;;;;;;5115659;28;20035;-77
2023/03/22 03:38:57;;;;;;;161.27;71.75;;;;;;;;;;5081993;28;20032;-76
2023/03/22 03:41:24;;;;;;;162.82;71.43;;;;;;;;;;5098572;28;20471;-77
2023/03/22 03:43:50;;;;;;;164.82;69.45;;;;;;;;;;5115564;28;20711;-75
2023/03/22 03:46:16;;;;;;;161.60;68.70;;;;;;;;;;5114985;28;20122;-75
2023/03/22 03:48:43;;;;;;;158.65;70.55;;;;;;;;;;5116757;28;20076;-76
2023/03/22 03:51:08;;;;;;;162.10;70.97;;;;;;;;;;5098223;28;20020;-75
2023/03/22 03:53:34;;;;;;;169.60;72.90;;;;;;;;;;5098288;28;20024;-75
2023/03/22 03:55:59;;;;;;;156.38;72.03;;;;;;;;;;5098275;28;20024;-75
2023/03/22 03:58:24;;;;;;;165.80;71.72;;;;;;;;;;5116378;28;20024;-75
2023/03/22 04:00:50;;;;;;;159.05;69.88;;;;;;;;;;5115164;28;20030;-78
2023/03/22 04:03:15;;;;;;;155.77;70.07;;;;;;;;;;5111802;28;20028;-77
2023/03/22 04:05:42;;;;;;;166.25;72.90;;;;;;;;;;5114305;28;20031;-77
2023/03/22 04:08:07;;;;;;;170.63;73.47;;;;;;;;;;5098205;28;20128;-77
2023/03/22 04:10:33;;;;;;;168.00;73.63;;;;;;;;;;5098444;28;20082;-78
2023/03/22 04:12:58;;;;;;;162.85;70.85;;;;;;;;;;5116015;28;20035;-77
2023/03/22 04:15:24;;;;;;;165.80;72.38;;;;;;;;;;5115192;28;20055;-77
2023/03/22 04:17:50;;;;;;;167.85;72.07;;;;;;;;;;5115855;28;20035;-77
2023/03/22 04:20:16;;;;;;;175.30;74.32;;;;;;;;;;5131671;27;20388;-77
2023/03/22 04:22:41;;;;;;;168.75;71.63;;;;;;;;;;5115767;28;20027;-77
2023/03/22 04:25:11;;;;;;;161.52;71.55;;;;;;;;;;5116023;28;20187;-77
2023/03/22 04:27:40;;;;;;;169.82;73.03;;;;;;;;;;5113917;28;20125;-77
2023/03/22 04:30:09;;;;;;;178.68;76.20;;;;;;;;;;5097669;28;20073;-77
2023/03/22 04:32:34;;;;;;;187.82;81.03;;;;;;;;;;5114485;28;20020;-77
2023/03/22 04:35:00;;;;;;;184.45;80.28;;;;;;;;;;5114345;28;20027;-77
2023/03/22 04:37:30;;;;;;;188.75;80.80;;;;;;;;;;5114603;28;20033;-76
2023/03/22 04:39:56;;;;;;;171.60;75.90;;;;;;;;;;5114231;28;20382;-76
2023/03/22 04:42:21;;;;;;;183.80;78.88;;;;;;;;;;5115426;28;20032;-76
2023/03/22 04:44:47;;;;;;;181.40;78.93;;;;;;;;;;5097253;28;20039;-76
2023/03/22 04:47:12;;;;;;;170.73;77.18;;;;;;;;;;5115369;28;20425;-76
2023/03/22 04:49:37;;;;;;;186.30;77.30;;;;;;;;;;5113882;28;20046;-76
2023/03/22 04:52:03;;;;;;;166.15;74.03;;;;;;;;;;5115334;28;20031;-76
2023/03/22 04:54:28;;;;;;;169.02;75.78;;;;;;;;;;5115507;28;20084;-77
2023/03/22 04:56:54;;;;;;;164.95;75.18;;;;;;;;;;5113271;28;20047;-77
2023/03/22 04:59:20;;;;;;;154.32;71.20;;;;;;;;;;5113993;28;20042;-77
2023/03/22 05:01:46;;;;;;;155.73;72.55;;;;;;;;;;5097179;28;20027;-77
2023/03/22 05:04:12;;;;;;;151.07;69.78;;;;;;;;;;5097099;28;20063;-77
2023/03/22 05:06:37;;;;;;;153.88;70.80;;;;;;;;;;5093334;28;20119;-77
2023/03/22 05:09:03;;;;;;;146.60;70.20;;;;;;;;;;5115127;28;20039;-77
2023/03/22 05:11:28;;;;;;;148.10;67.93;;;;;;;;;;5096645;28;20034;-76
2023/03/22 05:13:54;;;;;;;140.90;66.10;;;;;;;;;;5096633;28;20422;-75
2023/03/22 05:16:20;;;;;;;128.88;62.63;;;;;;;;;;5096723;28;20028;-74
2023/03/22 05:18:45;;;;;;;123.65;60.38;;;;;;;;;;5114651;28;20433;-76
2023/03/22 05:21:14;;;;;;;124.95;59.13;;;;;;;;;;5113450;28;20028;-75
2023/03/22 05:23:42;;;;;;;129.40;61.78;;;;;;;;;;5080761;28;20034;-78
2023/03/22 05:26:09;;;;;;;125.75;61.45;;;;;;;;;;5113296;28;20035;-75
2023/03/22 05:28:34;;;;;;;144.75;70.55;;;;;;;;;;5113281;28;20028;-76
2023/03/22 05:31:00;;;;;;;136.95;64.55;;;;;;;;;;5107439;28;20076;-77
2023/03/22 05:33:28;;;;;;;141.77;64.68;;;;;;;;;;5076735;28;20055;-83
2023/03/22 05:35:54;;;;;;;134.02;63.95;;;;;;;;;;5094063;28;20051;-81
2023/03/22 05:38:23;;;;;;;142.18;64.47;;;;;;;;;;5093086;28;20465;-80
2023/03/22 05:40:50;;;;;;;135.77;62.30;;;;;;;;;;5093400;28;20040;-80
2023/03/22 05:43:18;;;;;;;132.80;61.47;;;;;;;;;;5099868;28;20033;-80
2023/03/22 05:45:45;;;;;;;139.07;59.08;;;;;;;;;;5104781;28;20073;-82
2023/03/22 05:48:10;;;;;;;127.45;57.55;;;;;;;;;;5110190;28;20051;-81
2023/03/22 05:50:36;;;;;;;135.13;60.20;;;;;;;;;;5092931;28;21605;-83
2023/03/22 05:53:02;;;;;;;136.85;60.47;;;;;;;;;;5109085;28;20083;-81
2023/03/22 05:55:31;;;;;;;133.45;59.88;;;;;;;;;;5107137;28;20125;-81
2023/03/22 05:58:01;;;;;;;136.52;58.65;;;;;;;;;;5110539;28;20111;-81
2023/03/22 06:00:30;;;;;;;134.45;56.83;;;;;;;;;;5104966;28;20020;-81
2023/03/22 06:03:05;;;;;;;121.85;56.25;;;;;;;;;;5089896;28;20084;-81
2023/03/22 06:05:31;;;;;;;128.70;54.83;;;;;;;;;;5109612;28;20066;-77
2023/03/22 06:07:57;;;;;;;122.15;56.05;;;;;;;;;;5102575;28;20035;-76
2023/03/22 06:10:23;;;;;;;123.93;58.03;;;;;;;;;;5111329;28;20122;-74
2023/03/22 06:12:49;;;;;;;119.57;55.72;;;;;;;;;;5109458;27;20184;-75
2023/03/22 06:15:21;;;;;;;134.00;57.65;;;;;;;;;;5108341;27;20046;-76
2023/03/22 06:17:47;;;;;;;168.93;83.22;;;;;;;;;;5110663;27;20130;-75
2023/03/22 06:20:14;;;;;;;126.85;59.22;;;;;;;;;;5107953;28;20122;-75
2023/03/22 06:22:39;;;;;;;129.65;56.55;;;;;;;;;;5108171;27;20443;-76
2023/03/22 06:25:07;;;;;;;130.60;57.15;;;;;;;;;;5109060;28;20126;-76
2023/03/22 06:27:34;;;;;;;180.98;89.82;;;;;;;;;;5106911;28;20032;-77
2023/03/22 06:30:00;;;;;;;151.10;70.28;;;;;;;;;;5107037;27;20032;-77
2023/03/22 06:32:30;;;;;;;129.82;60.90;;;;;;;;;;5108731;28;20062;-76
2023/03/22 06:34:55;;;;;;;123.00;56.58;;;;;;;;;;5105022;28;20566;-75
2023/03/22 06:37:26;;;;;;;131.43;54.35;;;;;;;;;;5103793;27;20055;-76
2023/03/22 06:39:53;;;;;;;132.20;55.08;;;;;;;;;;5106856;27;20047;-76
2023/03/22 06:42:20;;;;;;;133.23;60.42;;;;;;;;;;5108979;28;20027;-77
2023/03/22 06:44:47;;;;;;;139.50;59.55;;;;;;;;;;5105814;28;20546;-77
2023/03/22 06:47:19;;;;;;;132.65;59.58;;;;;;;;;;5092609;28;20028;-75
2023/03/22 06:49:44;;;;;;;150.10;66.53;;;;;;;;;;5091628;28;20036;-77
2023/03/22 06:52:11;;;;;;;137.20;61.60;;;;;;;;;;5089731;28;20036;-76
2023/03/22 06:54:42;;;;;;;143.57;61.85;;;;;;;;;;5110548;28;20047;-77
2023/03/22 06:57:13;;;;;;;131.50;57.70;;;;;;;;;;5094146;27;20031;-78
2023/03/22 06:59:47;;;;;;;143.27;61.30;;;;;;;;;;5101573;28;20052;-77
2023/03/22 07:02:29;;;;;;;139.00;55.50;;;;;;;;;;5106747;27;20054;-75
2023/03/22 07:04:55;;;;;;;130.77;55.83;;;;;;;;;;5109306;28;20558;-75
2023/03/22 07:07:21;;;;;;;128.95;55.42;;;;;;;;;;5110232;28;20024;-75
2023/03/22 07:09:46;;;;;;;141.93;60.95;;;;;;;;;;5087020;28;20030;-77
2023/03/22 07:12:21;;;;;;;149.32;59.88;;;;;;;;;;5091625;28;20038;-77
2023/03/22 07:14:49;;;;;;;138.15;58.45;;;;;;;;;;5109117;28;20604;-76
2023/03/22 07:17:15;;;;;;;139.48;60.10;;;;;;;;;;5108575;28;20038;-76
2023/03/22 07:19:41;;;;;;;144.43;60.88;;;;;;;;;;5091573;28;20421;-75
2023/03/22 07:22:07;;;;;;;133.00;57.88;;;;;;;;;;5112270;28;20031;-76
2023/03/22 07:24:32;;;;;;;137.13;59.85;;;;;;;;;;5111347;28;20452;-76
2023/03/22 07:26:58;;;;;;;136.38;58.60;;;;;;;;;;5112441;28;20122;-75
2023/03/22 07:29:24;;;;;;;124.13;55.45;;;;;;;;;;5111353;28;20039;-77
2023/03/22 07:31:49;;;;;;;125.53;55.08;;;;;;;;;;5108752;27;20114;-75
2023/03/22 07:34:15;;;;;;;132.25;56.03;;;;;;;;;;5112267;27;20083;-77
2023/03/22 07:36:41;;;;;;;124.00;53.75;;;;;;;;;;5109249;27;20028;-77
2023/03/22 07:39:07;;;;;;;125.70;55.55;;;;;;;;;;5107739;27;20380;-78
2023/03/22 07:41:40;;;;;;;134.02;58.30;;;;;;;;;;5111170;28;20070;-79
2023/03/22 07:44:06;;;;;;;140.48;57.92;;;;;;;;;;5086334;28;20033;-76
2023/03/22 07:46:32;;;;;;;133.48;58.38;;;;;;;;;;5105306;28;20032;-76
2023/03/22 07:49:02;;;;;;;122.25;55.25;;;;;;;;;;5107378;28;20032;-78
2023/03/22 07:52:03;;;;;;;122.10;54.83;;;;;;;;;;5108715;28;20051;-76
2023/03/22 07:54:28;;;;;;;113.78;50.38;;;;;;;;;;5113369;27;20032;-78
2023/03/22 07:56:54;;;;;;;118.82;49.75;;;;;;;;;;5099934;28;20589;-78
2023/03/22 07:59:19;;;;;;;107.82;50.17;;;;;;;;;;5092009;28;20050;-77
2023/03/22 08:01:45;;;;;;;108.70;50.15;;;;;;;;;;5108120;28;20099;-78
2023/03/22 08:04:10;;;;;;;113.63;53.20;;;;;;;;;;5109148;28;20062;-77
2023/03/22 08:06:36;;;;;;;111.50;50.75;;;;;;;;;;5097430;28;20044;-78
2023/03/22 08:09:07;;;;;;;123.28;53.80;;;;;;;;;;5089757;28;20032;-77
2023/03/22 08:11:34;;;;;;;122.10;55.33;;;;;;;;;;5074688;28;20425;-79
2023/03/22 08:14:00;;;;;;;114.20;52.22;;;;;;;;;;5142970;27;20452;-78
2023/03/22 08:16:25;;;;;;;117.50;52.28;;;;;;;;;;5111465;28;20038;-79
2023/03/22 08:18:50;;;;;;;119.57;53.47;;;;;;;;;;5113381;28;20468;-78
2023/03/22 08:21:16;;;;;;;118.00;54.85;;;;;;;;;;5113648;28;20652;-79
2023/03/22 08:23:41;;;;;;;126.05;54.05;;;;;;;;;;5115006;28;20390;-78
2023/03/22 08:26:08;;;;;;;128.20;54.03;;;;;;;;;;5115226;28;20027;-78
2023/03/22 08:28:33;;;;;;;129.73;54.80;;;;;;;;;;5113569;28;20027;-75
2023/03/22 08:30:59;;;;;;;136.23;55.38;;;;;;;;;;5105109;28;20036;-79
2023/03/22 08:33:24;;;;;;;133.82;55.20;;;;;;;;;;5111657;28;20019;-78
2023/03/22 08:35:50;;;;;;;129.27;54.78;;;;;;;;;;5108903;28;20061;-78
2023/03/22 08:38:16;;;;;;;118.78;52.75;;;;;;;;;;5112635;28;20031;-78
2023/03/22 08:40:41;;;;;;;122.00;53.30;;;;;;;;;;5112540;28;20036;-80
2023/03/22 08:43:06;;;;;;;131.00;54.38;;;;;;;;;;5097199;28;20221;-77
2023/03/22 08:45:32;;;;;;;120.80;51.90;;;;;;;;;;5113480;28;20034;-78
2023/03/22 08:48:00;;;;;;;135.57;55.53;;;;;;;;;;5113749;28;20147;-77
2023/03/22 08:50:26;;;;;;;139.57;59.10;;;;;;;;;;5113050;28;20407;-78
2023/03/22 08:52:52;;;;;;;192.57;77.03;;;;;;;;;;5110254;28;20134;-77
2023/03/22 08:55:18;;;;;;;156.13;63.80;;;;;;;;;;5109529;28;20032;-77
2023/03/22 08:57:49;;;;;;;134.75;54.63;;;;;;;;;;5112280;28;20381;-77
2023/03/22 09:00:15;;;;;;;;;;;;;;;;;;5106387;28;20038;-78
2023/03/22 09:02:52;;;;;;;121.72;51.40;;;;;;;;;;5105583;27;20543;-77
2023/03/22 09:05:19;;;;;;;133.43;57.15;;;;;;;;;;5109465;27;20039;-78
2023/03/22 09:07:44;;;;;;;133.93;55.40;;;;;;;;;;5114700;27;20103;-78
2023/03/22 09:10:10;;;;;;;133.73;57.58;;;;;;;;;;5092761;28;20118;-78
2023/03/22 09:12:36;;;;;;;132.10;53.05;;;;;;;;;;5112853;28;20127;-80
2023/03/22 09:15:02;;;;;;;125.60;56.58;;;;;;;;;;5092920;28;20031;-76
2023/03/22 09:17:27;;;;;;;143.15;60.15;;;;;;;;;;5113741;28;20031;-77
2023/03/22 09:19:53;;;;;;;141.70;59.92;;;;;;;;;;5110631;28;20126;-76
2023/03/22 09:22:21;;;;;;;142.70;60.17;;;;;;;;;;5107474;28;20380;-77
2023/03/22 09:24:47;;;;;;;138.75;59.42;;;;;;;;;;5109730;28;20032;-77
2023/03/22 09:27:12;;;;;;;140.80;59.30;;;;;;;;;;5111056;28;20032;-78
2023/03/22 09:29:38;;;;;;;138.77;59.10;;;;;;;;;;5109427;28;20031;-77
2023/03/22 09:32:03;;;;;;;138.00;58.40;;;;;;;;;;5109427;28;20092;-78
2023/03/22 09:34:29;;;;;;;119.50;53.33;;;;;;;;;;5109645;28;20039;-78
2023/03/22 09:36:54;;;;;;;128.02;53.75;;;;;;;;;;5112479;28;20023;-80
2023/03/22 09:39:21;;;;;;;119.45;51.30;;;;;;;;;;5107055;28;20085;-78
2023/03/22 09:41:52;;;;;;;127.60;53.85;;;;;;;;;;5106794;28;20087;-77
2023/03/22 09:44:23;;;;;;;129.40;54.92;;;;;;;;;;5108919;28;20024;-77
2023/03/22 09:47:19;;;;;;;121.22;53.80;;;;;;;;;;5110792;28;20066;-78
2023/03/22 09:49:47;;;;;;;118.25;51.33;;;;;;;;;;5110667;28;20035;-77
2023/03/22 09:52:14;;;;;;;124.22;51.00;;;;;;;;;;5110434;28;20035;-79
2023/03/22 09:54:41;;;;;;;114.78;48.80;;;;;;;;;;5111360;28;20077;-77
2023/03/22 09:57:08;;;;;;;108.95;49.28;;;;;;;;;;5111766;28;20490;-80
2023/03/22 09:59:38;;;;;;;116.40;49.63;;;;;;;;;;5114595;28;20023;-81
2023/03/22 10:02:15;;;;;;;112.38;50.70;;;;;;;;;;5116320;28;20461;-80
2023/03/22 10:04:49;;;;;;;114.43;51.83;;;;;;;;;;5111940;28;20066;-79
2023/03/22 10:07:42;;;;;;;109.82;49.08;;;;;;;;;;5102976;28;20092;-79
2023/03/22 10:10:17;;;;;;;109.38;47.60;;;;;;;;;;5116883;28;20030;-78
2023/03/22 10:12:58;;;;;;;105.68;46.47;;;;;;;;;;5095122;28;20057;-80
2023/03/22 10:15:29;;;;;;;116.03;54.70;;;;;;;;;;5110611;28;20031;-78
2023/03/22 10:17:55;;;;;;;112.10;49.55;;;;;;;;;;5097921;28;20032;-78
2023/03/22 10:20:32;;;;;;;100.80;46.45;;;;;;;;;;5112225;28;20030;-77
2023/03/22 10:22:58;;;;;;;114.22;48.35;;;;;;;;;;5097304;28;20361;-79
2023/03/22 10:25:31;;;;;;;109.63;49.40;;;;;;;;;;5109066;28;20031;-79
2023/03/22 10:27:58;;;;;;;106.82;47.70;;;;;;;;;;5098080;28;20026;-79
2023/03/22 10:30:25;;;;;;;110.95;49.22;;;;;;;;;;5114330;28;20486;-80
2023/03/22 10:32:51;;;;;;;109.35;48.55;;;;;;;;;;5110997;28;20453;-78
2023/03/22 10:35:17;;;;;;;109.40;50.42;;;;;;;;;;5084694;28;20027;-79
2023/03/22 10:37:44;;;;;;;111.40;49.97;;;;;;;;;;5106014;28;20024;-79
2023/03/22 10:40:19;;;;;;;107.20;48.17;;;;;;;;;;5105848;28;20067;-80
2023/03/22 10:42:49;;;;;;;104.88;48.22;;;;;;;;;;5100792;28;20454;-80
2023/03/22 10:45:15;;;;;;;116.03;51.22;;;;;;;;;;5070152;28;20130;-78
2023/03/22 10:48:01;;;;;;;109.60;49.72;;;;;;;;;;5085638;28;20130;-80
2023/03/22 10:50:35;;;;;;;110.68;47.08;;;;;;;;;;5130139;27;20519;-81
2023/03/22 10:53:39;;;;;;;103.55;46.65;;;;;;;;;;5105022;28;20050;-81
2023/03/22 10:56:08;;;;;;;108.43;47.97;;;;;;;;;;5075937;28;20043;-78
2023/03/22 10:58:34;;;;;;;107.38;47.88;;;;;;;;;;5107178;28;20078;-80
2023/03/22 11:01:37;;;;;;;107.28;46.80;;;;;;;;;;5105393;28;20139;-78
2023/03/22 11:04:12;;;;;;;112.53;47.53;;;;;;;;;;5010728;28;20104;-79
2023/03/22 11:06:51;;;;;;;109.05;45.10;;;;;;;;;;5093618;27;20048;-78
2023/03/22 11:09:18;;;;;;;104.93;45.38;;;;;;;;;;5123670;27;20453;-79
2023/03/22 11:11:54;;;;;;;104.68;47.00;;;;;;;;;;5121687;27;20407;-79
2023/03/22 11:14:26;;;;;;;96.65;45.22;;;;;;;;;;5103424;28;20040;-79
2023/03/22 11:17:14;;;;;;;107.45;46.75;;;;;;;;;;5107255;28;20047;-77
2023/03/22 11:19:51;;;;;;;103.43;44.33;;;;;;;;;;5106003;28;20397;-77
2023/03/22 11:22:32;;;;;;;99.85;45.60;;;;;;;;;;5105632;28;20108;-78
2023/03/22 11:24:57;;;;;;;93.35;43.13;;;;;;;;;;5089966;28;20496;-77
2023/03/22 11:27:28;;;;;;;95.22;43.38;;;;;;;;;;5108553;28;20119;-77
2023/03/22 11:29:57;;;;;;;99.10;45.00;;;;;;;;;;5092875;27;20038;-78
2023/03/22 11:32:26;;;;;;;90.75;40.85;;;;;;;;;;5091177;28;20060;-77
2023/03/22 11:35:22;;;;;;;99.53;43.33;;;;;;;;;;5087607;28;20020;-77
2023/03/22 11:37:50;;;;;;;101.75;41.58;;;;;;;;;;5104336;28;20030;-77
2023/03/22 11:40:23;;;;;;;89.97;38.90;;;;;;;;;;5125085;27;20070;-79
2023/03/22 11:42:52;;;;;;;93.78;38.75;;;;;;;;;;5097909;27;20111;-78
2023/03/22 11:45:24;;;;;;;89.90;39.83;;;;;;;;;;5091595;28;20087;-77
2023/03/22 11:47:49;;;;;;;87.72;37.03;;;;;;;;;;5109650;28;20023;-76
2023/03/22 11:50:28;;;;;;;82.45;36.50;;;;;;;;;;5111731;28;20034;-78
2023/03/22 11:52:55;;;;;;;87.90;37.57;;;;;;;;;;5128635;27;20062;-78
2023/03/22 11:55:21;;;;;;;92.65;37.35;;;;;;;;;;5097467;28;20028;-79
2023/03/22 11:57:48;;;;;;;90.22;37.67;;;;;;;;;;5117488;28;20130;-77
2023/03/22 12:00:21;;;;;;;77.43;35.17;;;;;;;;;;5115371;28;20290;-76
2023/03/22 12:02:54;;;;;;;82.75;35.65;;;;;;;;;;5111577;28;20020;-77
2023/03/22 12:05:26;;;;;;;80.88;36.80;;;;;;;;;;5094428;28;20032;-77
2023/03/22 12:07:55;;;;;;;98.32;39.47;;;;;;;;;;5112387;28;20028;-77
2023/03/22 12:10:25;;;;;;;85.50;36.78;;;;;;;;;;5113039;28;20399;-77
2023/03/22 12:13:03;;;;;;;95.53;38.15;;;;;;;;;;5128693;27;20024;-79
2023/03/22 12:15:37;;;;;;;86.00;37.63;;;;;;;;;;5111647;27;20045;-79
2023/03/22 12:18:26;;;;;;;81.40;39.00;;;;;;;;;;5131322;27;20107;-78
2023/03/22 12:20:57;;;;;;;80.93;36.50;;;;;;;;;;5114178;28;20100;-77
2023/03/22 12:23:25;;;;;;;85.50;38.90;;;;;;;;;;5131631;27;20372;-78
2023/03/22 12:26:16;;;;;;;84.10;39.40;;;;;;;;;;5115299;27;20031;-79
2023/03/22 12:28:55;;;;;;;92.03;39.50;;;;;;;;;;5116311;27;20085;-80
2023/03/22 12:31:45;;;;;;;84.00;37.65;;;;;;;;;;5115204;27;20023;-78
2023/03/22 12:34:14;;;;;;;;;;;;;;;;;;5090553;27;20443;-77
2023/03/22 12:36:47;;;;;;;82.95;35.85;;;;;;;;;;5149385;27;19934;-79
2023/03/22 12:39:46;;;;;;;85.40;36.33;;;;;;;;;;5096372;28;20047;-77
2023/03/22 12:42:36;;;;;;;79.28;35.72;;;;;;;;;;5097671;28;20122;-77
2023/03/22 12:45:05;;;;;;;77.15;34.63;;;;;;;;;;5132709;27;20089;-79
2023/03/22 12:47:46;;;;;;;82.07;37.20;;;;;;;;;;5131256;27;20378;-78
2023/03/22 12:50:23;;;;;;;88.95;34.67;;;;;;;;;;5131443;27;20031;-77
2023/03/22 12:52:50;;;;;;;78.50;35.83;;;;;;;;;;5114002;28;20050;-78
2023/03/22 12:55:34;;;;;;;85.68;37.38;;;;;;;;;;5115522;28;20107;-80
2023/03/22 12:58:00;;;;;;;86.00;37.85;;;;;;;;;;5114263;28;20032;-76
2023/03/22 13:00:43;;;;;;;81.13;34.38;;;;;;;;;;5131048;27;20020;-80
2023/03/22 13:03:16;;;;;;;89.28;38.78;;;;;;;;;;5098085;28;20032;-79
2023/03/22 13:05:41;;;;;;;91.72;38.50;;;;;;;;;;5113504;28;20483;-78
2023/03/22 13:08:07;;;;;;;83.28;36.25;;;;;;;;;;5095985;28;20118;-78
2023/03/22 13:10:32;;;;;;;82.53;34.42;;;;;;;;;;5112650;28;20024;-78
2023/03/22 13:13:23;;;;;;;74.25;33.55;;;;;;;;;;5114654;28;20020;-78
2023/03/22 13:15:54;;;;;;;96.45;40.88;;;;;;;;;;5114785;28;20114;-78
2023/03/22 13:18:36;;;;;;;94.28;39.83;;;;;;;;;;5113940;28;20019;-77
2023/03/22 13:21:15;;;;;;;89.32;38.22;;;;;;;;;;5113480;28;20062;-78
2023/03/22 13:24:18;;;;;;;80.80;37.23;;;;;;;;;;5114761;28;20038;-79
2023/03/22 13:26:44;;;;;;;79.88;35.03;;;;;;;;;;5132863;27;20066;-79
2023/03/22 13:29:33;;;;;;;72.55;32.15;;;;;;;;;;5112689;28;20024;-78
2023/03/22 13:32:17;;;;;;;69.43;32.95;;;;;;;;;;5112523;28;20412;-78
2023/03/22 13:34:47;;;;;;;73.85;31.90;;;;;;;;;;5114028;28;20039;-78
2023/03/22 13:37:44;;;;;;;71.43;33.22;;;;;;;;;;5130676;27;20084;-77
2023/03/22 13:40:13;;;;;;;73.97;30.77;;;;;;;;;;5106758;28;20108;-78
2023/03/22 13:42:39;;;;;;;68.90;32.13;;;;;;;;;;5092433;28;20028;-77
2023/03/22 13:45:18;;;;;;;77.20;29.92;;;;;;;;;;5126535;27;20020;-78
2023/03/22 13:47:45;;;;;;;74.25;31.63;;;;;;;;;;5094151;28;20115;-78
2023/03/22 13:50:28;;;;;;;74.28;34.67;;;;;;;;;;5092524;28;20452;-78
2023/03/22 13:53:05;;;;;;;62.30;30.30;;;;;;;;;;5109511;28;20094;-78
2023/03/22 13:56:02;;;;;;;69.28;30.77;;;;;;;;;;5076055;28;20158;-80
2023/03/22 13:58:52;;;;;;;66.60;30.58;;;;;;;;;;5089734;28;20044;-78
2023/03/22 14:01:55;;;;;;;61.88;30.10;;;;;;;;;;5092274;28;20032;-78
2023/03/22 14:04:25;;;;;;;76.38;31.02;;;;;;;;;;5109521;28;20028;-78
2023/03/22 14:06:51;;;;;;;64.40;29.25;;;;;;;;;;5109779;28;20519;-79
2023/03/22 14:09:33;;;;;;;68.20;32.15;;;;;;;;;;5100570;28;20168;-77
2023/03/22 14:12:21;;;;;;;73.28;32.22;;;;;;;;;;5112769;28;20034;-77
2023/03/22 14:14:49;;;;;;;72.03;29.98;;;;;;;;;;5081867;28;20445;-78
2023/03/22 14:17:40;;;;;;;73.25;32.85;;;;;;;;;;5096103;28;20437;-78
2023/03/22 14:20:09;;;;;;;73.15;30.85;;;;;;;;;;5048723;28;20040;-78
2023/03/22 14:22:37;;;;;;;71.18;33.15;;;;;;;;;;5112779;28;20035;-78
2023/03/22 14:25:03;;;;;;;74.20;30.63;;;;;;;;;;5112930;28;20039;-79
2023/03/22 14:27:34;;;;;;;72.38;31.65;;;;;;;;;;5079251;28;20116;-77
2023/03/22 14:29:59;;;;;;;65.60;30.05;;;;;;;;;;5098334;28;20045;-78